Surfside Beach, Texas
Current Conditions -  °F | °C
As of 8:00 PM on Thursday 20 Nov 2014 (Local Time) from KLBX Reporting Station
Overcast Overcast  
Wind Chill: 63°   Ceiling: 4800
Heat Index: 63°   Visibility: 10mi
Dew Point: 62°   Wind: 7mph
Humidity: 97%   Direction: 140°SE
Pressure: 30.09"   Gusts: NA
Location:  28.9433°N, 95.4584°W
Report Text: KLBX 210200Z AUTO 14006KT 10SM FEW014 BKN048 OVC060 17/17 A3009 RMK AO2 RAE0159 P0000 T01720167
Loading
Personal Weather Stations






























Interactive Weather Map New forecast layout! Learn more

10-Day Weather Forecast

Advertisements
Track Severe Weather on mobile